sensor_id;sensor_type;location;lat;lon;timestamp;temperature;humidity
47520;DHT22;33252;48.122;11.538;2023-04-25T00:02:03;8.20;97.30
47520;DHT22;33252;48.122;11.538;2023-04-25T00:04:29;8.20;97.50
47520;DHT22;33252;48.122;11.538;2023-04-25T00:06:55;8.30;97.30
47520;DHT22;33252;48.122;11.538;2023-04-25T00:09:21;8.40;97.20
47520;DHT22;33252;48.122;11.538;2023-04-25T00:11:48;8.40;97.10
47520;DHT22;33252;48.122;11.538;2023-04-25T00:14:14;8.40;97.20
47520;DHT22;33252;48.122;11.538;2023-04-25T00:16:39;8.30;97.30
47520;DHT22;33252;48.122;11.538;2023-04-25T00:19:06;8.30;97.20
47520;DHT22;33252;48.122;11.538;2023-04-25T00:21:33;8.50;97.30
47520;DHT22;33252;48.122;11.538;2023-04-25T00:23:59;8.50;96.80
47520;DHT22;33252;48.122;11.538;2023-04-25T00:26:25;8.50;96.90
47520;DHT22;33252;48.122;11.538;2023-04-25T00:28:51;8.40;96.90
47520;DHT22;33252;48.122;11.538;2023-04-25T00:31:16;8.40;97.20
47520;DHT22;33252;48.122;11.538;2023-04-25T00:33:42;8.50;97.00
47520;DHT22;33252;48.122;11.538;2023-04-25T00:36:08;8.50;97.00
47520;DHT22;33252;48.122;11.538;2023-04-25T00:38:34;8.50;97.00
47520;DHT22;33252;48.122;11.538;2023-04-25T00:41:00;8.40;96.90
47520;DHT22;33252;48.122;11.538;2023-04-25T00:43:26;8.40;97.00
47520;DHT22;33252;48.122;11.538;2023-04-25T00:45:52;8.40;97.10
47520;DHT22;33252;48.122;11.538;2023-04-25T00:48:20;8.30;97.20
47520;DHT22;33252;48.122;11.538;2023-04-25T00:50:55;8.30;97.60
47520;DHT22;33252;48.122;11.538;2023-04-25T00:53:23;8.40;97.20
47520;DHT22;33252;48.122;11.538;2023-04-25T00:55:49;8.30;97.20
47520;DHT22;33252;48.122;11.538;2023-04-25T00:58:17;8.30;97.40
47520;DHT22;33252;48.122;11.538;2023-04-25T01:00:44;8.30;97.20
47520;DHT22;33252;48.122;11.538;2023-04-25T01:03:10;8.30;97.20
47520;DHT22;33252;48.122;11.538;2023-04-25T01:05:37;8.30;97.30
47520;DHT22;33252;48.122;11.538;2023-04-25T01:08:02;8.10;97.30
47520;DHT22;33252;48.122;11.538;2023-04-25T01:10:28;8.20;97.40
47520;DHT22;33252;48.122;11.538;2023-04-25T01:12:54;8.10;97.40
47520;DHT22;33252;48.122;11.538;2023-04-25T01:15:20;8.20;97.40
47520;DHT22;33252;48.122;11.538;2023-04-25T01:17:45;8.10;97.30
47520;DHT22;33252;48.122;11.538;2023-04-25T01:20:12;8.10;97.30
47520;DHT22;33252;48.122;11.538;2023-04-25T01:22:39;8.10;97.30
47520;DHT22;33252;48.122;11.538;2023-04-25T01:25:05;8.10;97.40
47520;DHT22;33252;48.122;11.538;2023-04-25T01:27:32;8.00;97.40
47520;DHT22;33252;48.122;11.538;2023-04-25T01:29:58;8.00;97.40
47520;DHT22;33252;48.122;11.538;2023-04-25T01:32:24;7.90;97.60
47520;DHT22;33252;48.122;11.538;2023-04-25T01:34:50;7.80;97.60
47520;DHT22;33252;48.122;11.538;2023-04-25T01:37:17;7.90;97.80
47520;DHT22;33252;48.122;11.538;2023-04-25T01:39:43;7.80;97.90
47520;DHT22;33252;48.122;11.538;2023-04-25T01:42:09;7.80;97.70
47520;DHT22;33252;48.122;11.538;2023-04-25T01:44:35;7.80;97.70
47520;DHT22;33252;48.122;11.538;2023-04-25T01:47:00;7.80;97.70
47520;DHT22;33252;48.122;11.538;2023-04-25T01:49:26;7.80;97.70
47520;DHT22;33252;48.122;11.538;2023-04-25T01:51:52;7.70;97.90
47520;DHT22;33252;48.122;11.538;2023-04-25T01:54:18;7.60;98.20
47520;DHT22;33252;48.122;11.538;2023-04-25T01:56:50;7.50;98.20
47520;DHT22;33252;48.122;11.538;2023-04-25T01:59:17;7.60;98.10
47520;DHT22;33252;48.122;11.538;2023-04-25T02:01:43;7.60;97.90
47520;DHT22;33252;48.122;11.538;2023-04-25T02:04:09;7.70;98.00
47520;DHT22;33252;48.122;11.538;2023-04-25T02:06:35;7.70;97.90
47520;DHT22;33252;48.122;11.538;2023-04-25T02:09:00;7.50;98.00
47520;DHT22;33252;48.122;11.538;2023-04-25T02:11:26;7.50;98.10
47520;DHT22;33252;48.122;11.538;2023-04-25T02:13:51;7.60;98.00
47520;DHT22;33252;48.122;11.538;2023-04-25T02:16:17;7.60;97.90
47520;DHT22;33252;48.122;11.538;2023-04-25T02:18:44;7.60;98.00
47520;DHT22;33252;48.122;11.538;2023-04-25T02:21:10;7.50;98.10
47520;DHT22;33252;48.122;11.538;2023-04-25T02:23:37;7.60;97.90
47520;DHT22;33252;48.122;11.538;2023-04-25T02:26:03;7.70;97.80
47520;DHT22;33252;48.122;11.538;2023-04-25T02:28:28;7.70;97.90
47520;DHT22;33252;48.122;11.538;2023-04-25T02:30:54;7.70;97.90
47520;DHT22;33252;48.122;11.538;2023-04-25T02:33:20;7.60;98.00
47520;DHT22;33252;48.122;11.538;2023-04-25T02:35:46;7.60;98.00
47520;DHT22;33252;48.122;11.538;2023-04-25T02:38:12;7.70;97.90
47520;DHT22;33252;48.122;11.538;2023-04-25T02:40:38;7.80;97.60
47520;DHT22;33252;48.122;11.538;2023-04-25T02:43:03;7.70;97.30
47520;DHT22;33252;48.122;11.538;2023-04-25T02:45:29;7.70;97.50
47520;DHT22;33252;48.122;11.538;2023-04-25T02:47:54;7.70;97.40
47520;DHT22;33252;48.122;11.538;2023-04-25T02:50:20;7.70;97.50
47520;DHT22;33252;48.122;11.538;2023-04-25T02:52:46;7.70;97.30
47520;DHT22;33252;48.122;11.538;2023-04-25T02:55:12;7.70;97.20
47520;DHT22;33252;48.122;11.538;2023-04-25T02:57:38;7.70;97.10
47520;DHT22;33252;48.122;11.538;2023-04-25T03:00:04;7.70;97.00
47520;DHT22;33252;48.122;11.538;2023-04-25T03:02:31;7.70;97.00
47520;DHT22;33252;48.122;11.538;2023-04-25T03:04:56;7.70;97.00
47520;DHT22;33252;48.122;11.538;2023-04-25T03:07:22;7.70;97.00
47520;DHT22;33252;48.122;11.538;2023-04-25T03:09:47;7.70;97.20
47520;DHT22;33252;48.122;11.538;2023-04-25T03:12:13;7.60;96.80
47520;DHT22;33252;48.122;11.538;2023-04-25T03:14:39;7.70;97.20
47520;DHT22;33252;48.122;11.538;2023-04-25T03:17:04;7.60;97.50
47520;DHT22;33252;48.122;11.538;2023-04-25T03:19:30;7.60;98.60
47520;DHT22;33252;48.122;11.538;2023-04-25T03:21:56;7.60;98.60
47520;DHT22;33252;48.122;11.538;2023-04-25T03:24:21;7.50;98.40
47520;DHT22;33252;48.122;11.538;2023-04-25T03:26:47;7.50;98.70
47520;DHT22;33252;48.122;11.538;2023-04-25T03:29:13;7.60;98.40
47520;DHT22;33252;48.122;11.538;2023-04-25T03:31:38;7.40;98.90
47520;DHT22;33252;48.122;11.538;2023-04-25T03:34:04;7.40;99.10
47520;DHT22;33252;48.122;11.538;2023-04-25T03:36:30;7.40;98.70
47520;DHT22;33252;48.122;11.538;2023-04-25T03:38:55;7.30;99.30
47520;DHT22;33252;48.122;11.538;2023-04-25T03:41:21;7.30;99.00
47520;DHT22;33252;48.122;11.538;2023-04-25T03:43:47;7.30;99.00
47520;DHT22;33252;48.122;11.538;2023-04-25T03:46:13;7.30;99.00
47520;DHT22;33252;48.122;11.538;2023-04-25T03:48:38;7.40;99.10
47520;DHT22;33252;48.122;11.538;2023-04-25T03:51:04;7.30;99.10
47520;DHT22;33252;48.122;11.538;2023-04-25T03:53:30;7.30;99.30
47520;DHT22;33252;48.122;11.538;2023-04-25T03:55:56;7.20;99.50
47520;DHT22;33252;48.122;11.538;2023-04-25T03:58:21;7.30;99.30
47520;DHT22;33252;48.122;11.538;2023-04-25T04:00:48;7.20;99.60
47520;DHT22;33252;48.122;11.538;2023-04-25T04:03:14;7.20;99.70
47520;DHT22;33252;48.122;11.538;2023-04-25T04:05:39;7.00;99.70
47520;DHT22;33252;48.122;11.538;2023-04-25T04:08:06;7.10;99.90
47520;DHT22;33252;48.122;11.538;2023-04-25T04:10:32;7.20;99.50
47520;DHT22;33252;48.122;11.538;2023-04-25T04:12:57;7.00;99.60
47520;DHT22;33252;48.122;11.538;2023-04-25T04:15:23;7.00;99.90
47520;DHT22;33252;48.122;11.538;2023-04-25T04:17:49;7.20;99.80
47520;DHT22;33252;48.122;11.538;2023-04-25T04:20:14;7.10;99.80
47520;DHT22;33252;48.122;11.538;2023-04-25T04:22:40;7.10;99.90
47520;DHT22;33252;48.122;11.538;2023-04-25T04:25:06;7.10;99.90
47520;DHT22;33252;48.122;11.538;2023-04-25T04:27:32;7.10;99.90
47520;DHT22;33252;48.122;11.538;2023-04-25T04:29:58;7.00;99.90
47520;DHT22;33252;48.122;11.538;2023-04-25T04:32:23;7.10;99.90
47520;DHT22;33252;48.122;11.538;2023-04-25T04:34:50;7.00;99.90
47520;DHT22;33252;48.122;11.538;2023-04-25T04:37:17;7.00;99.90
47520;DHT22;33252;48.122;11.538;2023-04-25T04:39:43;7.10;99.90
47520;DHT22;33252;48.122;11.538;2023-04-25T04:42:09;7.00;99.90
47520;DHT22;33252;48.122;11.538;2023-04-25T04:44:37;6.80;99.90
47520;DHT22;33252;48.122;11.538;2023-04-25T04:47:04;6.90;99.90
47520;DHT22;33252;48.122;11.538;2023-04-25T04:49:32;7.10;99.90
47520;DHT22;33252;48.122;11.538;2023-04-25T04:51:57;6.90;99.90
47520;DHT22;33252;48.122;11.538;2023-04-25T04:54:25;7.00;99.90
47520;DHT22;33252;48.122;11.538;2023-04-25T04:56:51;6.90;99.90
47520;DHT22;33252;48.122;11.538;2023-04-25T04:59:17;6.80;99.90
47520;DHT22;33252;48.122;11.538;2023-04-25T05:01:43;6.90;99.90
47520;DHT22;33252;48.122;11.538;2023-04-25T05:04:09;6.90;99.90
47520;DHT22;33252;48.122;11.538;2023-04-25T05:06:34;7.10;99.90
47520;DHT22;33252;48.122;11.538;2023-04-25T05:09:00;7.10;99.90
47520;DHT22;33252;48.122;11.538;2023-04-25T05:11:25;7.20;99.90
47520;DHT22;33252;48.122;11.538;2023-04-25T05:13:52;7.20;99.90
47520;DHT22;33252;48.122;11.538;2023-04-25T05:16:18;7.00;99.90
47520;DHT22;33252;48.122;11.538;2023-04-25T05:18:44;7.00;99.90
47520;DHT22;33252;48.122;11.538;2023-04-25T05:21:10;7.10;99.90
47520;DHT22;33252;48.122;11.538;2023-04-25T05:23:35;7.10;99.90
47520;DHT22;33252;48.122;11.538;2023-04-25T05:26:01;7.20;99.90
47520;DHT22;33252;48.122;11.538;2023-04-25T05:28:27;7.10;99.90
47520;DHT22;33252;48.122;11.538;2023-04-25T05:30:52;7.20;99.90
47520;DHT22;33252;48.122;11.538;2023-04-25T05:33:18;7.20;99.90
47520;DHT22;33252;48.122;11.538;2023-04-25T05:35:44;7.20;99.90
47520;DHT22;33252;48.122;11.538;2023-04-25T05:38:10;7.10;99.90
47520;DHT22;33252;48.122;11.538;2023-04-25T05:40:36;7.20;99.90
47520;DHT22;33252;48.122;11.538;2023-04-25T05:43:02;7.00;99.90
47520;DHT22;33252;48.122;11.538;2023-04-25T05:45:27;7.10;99.90
47520;DHT22;33252;48.122;11.538;2023-04-25T05:47:53;7.10;99.90
47520;DHT22;33252;48.122;11.538;2023-04-25T05:50:18;7.10;99.90
47520;DHT22;33252;48.122;11.538;2023-04-25T05:52:44;7.00;99.90
47520;DHT22;33252;48.122;11.538;2023-04-25T05:55:10;7.00;99.90
47520;DHT22;33252;48.122;11.538;2023-04-25T05:57:35;7.00;99.90
47520;DHT22;33252;48.122;11.538;2023-04-25T06:00:01;6.80;99.90
47520;DHT22;33252;48.122;11.538;2023-04-25T06:02:27;6.50;99.90
47520;DHT22;33252;48.122;11.538;2023-04-25T06:04:53;6.50;99.90
47520;DHT22;33252;48.122;11.538;2023-04-25T06:07:19;6.20;99.90
47520;DHT22;33252;48.122;11.538;2023-04-25T06:09:45;6.10;99.90
47520;DHT22;33252;48.122;11.538;2023-04-25T06:12:11;6.00;99.90
47520;DHT22;33252;48.122;11.538;2023-04-25T06:14:37;6.10;99.90
47520;DHT22;33252;48.122;11.538;2023-04-25T06:17:03;6.00;99.90
47520;DHT22;33252;48.122;11.538;2023-04-25T06:19:34;5.90;99.90
47520;DHT22;33252;48.122;11.538;2023-04-25T06:22:01;5.90;99.90
47520;DHT22;33252;48.122;11.538;2023-04-25T06:24:27;5.90;99.90
47520;DHT22;33252;48.122;11.538;2023-04-25T06:26:52;6.10;99.90
47520;DHT22;33252;48.122;11.538;2023-04-25T06:29:18;6.30;99.90
47520;DHT22;33252;48.122;11.538;2023-04-25T06:31:44;6.20;99.90
47520;DHT22;33252;48.122;11.538;2023-04-25T06:34:10;6.10;99.90
47520;DHT22;33252;48.122;11.538;2023-04-25T06:36:36;6.40;99.90
47520;DHT22;33252;48.122;11.538;2023-04-25T06:39:01;6.40;99.90
47520;DHT22;33252;48.122;11.538;2023-04-25T06:41:27;6.30;99.90
47520;DHT22;33252;48.122;11.538;2023-04-25T06:43:53;6.50;99.90
47520;DHT22;33252;48.122;11.538;2023-04-25T06:46:18;6.40;99.90
47520;DHT22;33252;48.122;11.538;2023-04-25T06:48:44;6.50;99.90
47520;DHT22;33252;48.122;11.538;2023-04-25T06:51:10;6.80;99.90
47520;DHT22;33252;48.122;11.538;2023-04-25T06:53:35;6.90;99.90
47520;DHT22;33252;48.122;11.538;2023-04-25T06:56:01;6.90;99.90
47520;DHT22;33252;48.122;11.538;2023-04-25T06:58:28;7.00;99.90
47520;DHT22;33252;48.122;11.538;2023-04-25T07:00:54;6.90;99.90
47520;DHT22;33252;48.122;11.538;2023-04-25T07:03:20;7.00;99.90
47520;DHT22;33252;48.122;11.538;2023-04-25T07:05:46;7.10;99.90
47520;DHT22;33252;48.122;11.538;2023-04-25T07:08:11;7.20;99.90
47520;DHT22;33252;48.122;11.538;2023-04-25T07:10:37;7.10;99.90
47520;DHT22;33252;48.122;11.538;2023-04-25T07:13:03;7.10;99.90
47520;DHT22;33252;48.122;11.538;2023-04-25T07:15:28;7.10;99.90
47520;DHT22;33252;48.122;11.538;2023-04-25T07:17:54;7.20;99.90
47520;DHT22;33252;48.122;11.538;2023-04-25T07:20:20;7.30;99.90
47520;DHT22;33252;48.122;11.538;2023-04-25T07:22:46;7.00;99.90
47520;DHT22;33252;48.122;11.538;2023-04-25T07:25:11;7.10;99.90
47520;DHT22;33252;48.122;11.538;2023-04-25T07:27:37;7.30;99.90
47520;DHT22;33252;48.122;11.538;2023-04-25T07:30:04;7.40;99.90
47520;DHT22;33252;48.122;11.538;2023-04-25T07:32:30;7.50;99.90
47520;DHT22;33252;48.122;11.538;2023-04-25T07:34:55;7.70;99.90
47520;DHT22;33252;48.122;11.538;2023-04-25T07:37:21;7.80;99.90
47520;DHT22;33252;48.122;11.538;2023-04-25T07:39:47;7.80;99.90
47520;DHT22;33252;48.122;11.538;2023-04-25T07:42:13;7.80;99.90
47520;DHT22;33252;48.122;11.538;2023-04-25T07:44:39;7.70;99.90
47520;DHT22;33252;48.122;11.538;2023-04-25T07:47:06;7.80;99.90
47520;DHT22;33252;48.122;11.538;2023-04-25T07:49:36;7.70;99.90
47520;DHT22;33252;48.122;11.538;2023-04-25T07:52:02;7.80;99.90
47520;DHT22;33252;48.122;11.538;2023-04-25T07:54:28;7.80;99.90
47520;DHT22;33252;48.122;11.538;2023-04-25T07:56:54;8.00;99.90
47520;DHT22;33252;48.122;11.538;2023-04-25T07:59:20;8.00;99.90
47520;DHT22;33252;48.122;11.538;2023-04-25T08:01:45;8.10;99.90
47520;DHT22;33252;48.122;11.538;2023-04-25T08:04:11;8.40;99.90
47520;DHT22;33252;48.122;11.538;2023-04-25T08:06:37;8.40;99.90
47520;DHT22;33252;48.122;11.538;2023-04-25T08:09:02;8.30;99.90
47520;DHT22;33252;48.122;11.538;2023-04-25T08:11:29;8.30;99.90
47520;DHT22;33252;48.122;11.538;2023-04-25T08:13:55;8.40;99.90
47520;DHT22;33252;48.122;11.538;2023-04-25T08:16:21;8.50;99.90
47520;DHT22;33252;48.122;11.538;2023-04-25T08:18:47;8.70;99.90
47520;DHT22;33252;48.122;11.538;2023-04-25T08:21:13;8.70;99.90
47520;DHT22;33252;48.122;11.538;2023-04-25T08:23:38;8.60;99.90
47520;DHT22;33252;48.122;11.538;2023-04-25T08:26:05;8.70;99.90
47520;DHT22;33252;48.122;11.538;2023-04-25T08:28:31;8.60;99.90
47520;DHT22;33252;48.122;11.538;2023-04-25T08:30:56;8.80;99.90
47520;DHT22;33252;48.122;11.538;2023-04-25T08:33:22;8.90;99.90
47520;DHT22;33252;48.122;11.538;2023-04-25T08:35:48;8.90;99.90
47520;DHT22;33252;48.122;11.538;2023-04-25T08:38:14;8.80;99.90
47520;DHT22;33252;48.122;11.538;2023-04-25T08:40:40;8.70;99.90
47520;DHT22;33252;48.122;11.538;2023-04-25T08:43:07;8.90;99.90
47520;DHT22;33252;48.122;11.538;2023-04-25T08:45:40;8.90;99.90
47520;DHT22;33252;48.122;11.538;2023-04-25T08:48:11;9.00;99.90
47520;DHT22;33252;48.122;11.538;2023-04-25T08:50:40;9.20;99.90
47520;DHT22;33252;48.122;11.538;2023-04-25T08:53:09;9.20;99.90
47520;DHT22;33252;48.122;11.538;2023-04-25T08:55:37;9.20;97.70
47520;DHT22;33252;48.122;11.538;2023-04-25T08:58:09;9.40;99.20
47520;DHT22;33252;48.122;11.538;2023-04-25T09:00:35;9.40;97.80
47520;DHT22;33252;48.122;11.538;2023-04-25T09:03:01;9.60;96.20
47520;DHT22;33252;48.122;11.538;2023-04-25T09:05:28;9.70;94.30
47520;DHT22;33252;48.122;11.538;2023-04-25T09:07:54;9.80;94.30
47520;DHT22;33252;48.122;11.538;2023-04-25T09:10:22;9.80;94.10
47520;DHT22;33252;48.122;11.538;2023-04-25T09:15:30;10.10;95.00
47520;DHT22;33252;48.122;11.538;2023-04-25T09:17:57;10.00;93.50
47520;DHT22;33252;48.122;11.538;2023-04-25T09:20:23;10.10;93.60
47520;DHT22;33252;48.122;11.538;2023-04-25T09:23:00;10.20;93.70
47520;DHT22;33252;48.122;11.538;2023-04-25T09:25:26;10.40;92.90
47520;DHT22;33252;48.122;11.538;2023-04-25T09:27:53;10.60;92.60
47520;DHT22;33252;48.122;11.538;2023-04-25T09:30:29;10.40;92.60
47520;DHT22;33252;48.122;11.538;2023-04-25T09:33:07;10.70;92.50
47520;DHT22;33252;48.122;11.538;2023-04-25T09:35:43;10.50;91.60
47520;DHT22;33252;48.122;11.538;2023-04-25T09:38:12;10.50;92.10
47520;DHT22;33252;48.122;11.538;2023-04-25T09:40:41;10.40;92.20
47520;DHT22;33252;48.122;11.538;2023-04-25T09:43:19;10.50;91.40
47520;DHT22;33252;48.122;11.538;2023-04-25T09:45:46;10.50;91.70
47520;DHT22;33252;48.122;11.538;2023-04-25T09:48:25;10.50;91.90
47520;DHT22;33252;48.122;11.538;2023-04-25T09:53:32;10.50;90.50
47520;DHT22;33252;48.122;11.538;2023-04-25T09:56:00;10.40;90.00
47520;DHT22;33252;48.122;11.538;2023-04-25T09:58:29;10.40;90.20
47520;DHT22;33252;48.122;11.538;2023-04-25T10:00:59;10.40;90.10
47520;DHT22;33252;48.122;11.538;2023-04-25T10:03:25;10.30;90.40
47520;DHT22;33252;48.122;11.538;2023-04-25T10:05:52;10.20;91.10
47520;DHT22;33252;48.122;11.538;2023-04-25T10:08:20;10.30;92.50
47520;DHT22;33252;48.122;11.538;2023-04-25T10:10:47;10.30;92.10
47520;DHT22;33252;48.122;11.538;2023-04-25T10:13:14;10.20;92.00
47520;DHT22;33252;48.122;11.538;2023-04-25T10:15:41;10.40;92.50
47520;DHT22;33252;48.122;11.538;2023-04-25T10:18:07;10.60;92.00
47520;DHT22;33252;48.122;11.538;2023-04-25T10:20:33;10.80;91.70
47520;DHT22;33252;48.122;11.538;2023-04-25T10:23:11;10.90;90.50
47520;DHT22;33252;48.122;11.538;2023-04-25T10:25:39;10.90;90.30
47520;DHT22;33252;48.122;11.538;2023-04-25T10:28:05;10.60;90.90
47520;DHT22;33252;48.122;11.538;2023-04-25T10:30:31;10.50;90.90
47520;DHT22;33252;48.122;11.538;2023-04-25T10:32:58;10.60;90.90
47520;DHT22;33252;48.122;11.538;2023-04-25T10:35:29;10.60;91.20
47520;DHT22;33252;48.122;11.538;2023-04-25T10:38:04;10.50;92.00
47520;DHT22;33252;48.122;11.538;2023-04-25T10:40:31;9.70;94.80
47520;DHT22;33252;48.122;11.538;2023-04-25T10:46:25;9.10;94.10
47520;DHT22;33252;48.122;11.538;2023-04-25T10:48:53;9.00;93.40
47520;DHT22;33252;48.122;11.538;2023-04-25T10:51:32;9.00;93.60
47520;DHT22;33252;48.122;11.538;2023-04-25T10:54:03;8.90;94.90
47520;DHT22;33252;48.122;11.538;2023-04-25T10:56:37;9.10;94.50
47520;DHT22;33252;48.122;11.538;2023-04-25T10:59:17;9.30;94.90
47520;DHT22;33252;48.122;11.538;2023-04-25T11:01:47;9.30;95.80
47520;DHT22;33252;48.122;11.538;2023-04-25T11:04:23;9.10;97.00
47520;DHT22;33252;48.122;11.538;2023-04-25T11:07:16;8.90;96.80
47520;DHT22;33252;48.122;11.538;2023-04-25T11:09:45;9.00;96.80
47520;DHT22;33252;48.122;11.538;2023-04-25T11:12:11;9.20;96.40
47520;DHT22;33252;48.122;11.538;2023-04-25T11:14:38;9.30;96.40
47520;DHT22;33252;48.122;11.538;2023-04-25T11:17:04;9.60;95.40
47520;DHT22;33252;48.122;11.538;2023-04-25T11:19:31;9.70;95.40
47520;DHT22;33252;48.122;11.538;2023-04-25T11:21:58;9.70;94.00
47520;DHT22;33252;48.122;11.538;2023-04-25T11:24:31;9.50;92.60
47520;DHT22;33252;48.122;11.538;2023-04-25T11:27:00;9.50;93.20
47520;DHT22;33252;48.122;11.538;2023-04-25T11:29:28;9.70;93.20
47520;DHT22;33252;48.122;11.538;2023-04-25T11:31:55;9.60;92.30
47520;DHT22;33252;48.122;11.538;2023-04-25T11:34:24;9.40;92.90
47520;DHT22;33252;48.122;11.538;2023-04-25T11:36:51;8.90;94.60
47520;DHT22;33252;48.122;11.538;2023-04-25T11:39:18;9.10;95.40
47520;DHT22;33252;48.122;11.538;2023-04-25T11:41:45;9.00;94.40
47520;DHT22;33252;48.122;11.538;2023-04-25T11:44:10;9.10;96.30
47520;DHT22;33252;48.122;11.538;2023-04-25T11:46:36;9.00;95.50
47520;DHT22;33252;48.122;11.538;2023-04-25T11:49:02;8.60;97.10
47520;DHT22;33252;48.122;11.538;2023-04-25T11:51:30;8.60;98.90
47520;DHT22;33252;48.122;11.538;2023-04-25T11:53:57;8.30;99.30
47520;DHT22;33252;48.122;11.538;2023-04-25T11:56:22;8.40;99.90
47520;DHT22;33252;48.122;11.538;2023-04-25T11:58:58;8.40;99.90
47520;DHT22;33252;48.122;11.538;2023-04-25T12:01:31;8.30;99.90
47520;DHT22;33252;48.122;11.538;2023-04-25T12:03:58;8.30;99.90
47520;DHT22;33252;48.122;11.538;2023-04-25T12:06:28;8.20;99.90
47520;DHT22;33252;48.122;11.538;2023-04-25T12:09:03;8.00;99.60
47520;DHT22;33252;48.122;11.538;2023-04-25T12:11:31;7.80;99.90
47520;DHT22;33252;48.122;11.538;2023-04-25T12:14:03;8.20;99.90
47520;DHT22;33252;48.122;11.538;2023-04-25T12:16:39;7.90;99.90
47520;DHT22;33252;48.122;11.538;2023-04-25T12:19:05;7.90;99.90
47520;DHT22;33252;48.122;11.538;2023-04-25T12:21:32;7.90;99.90
47520;DHT22;33252;48.122;11.538;2023-04-25T12:24:21;7.80;99.90
47520;DHT22;33252;48.122;11.538;2023-04-25T12:26:53;7.70;99.90
47520;DHT22;33252;48.122;11.538;2023-04-25T12:29:21;7.90;99.90
47520;DHT22;33252;48.122;11.538;2023-04-25T12:31:48;7.60;99.90
47520;DHT22;33252;48.122;11.538;2023-04-25T12:34:13;7.60;99.90
47520;DHT22;33252;48.122;11.538;2023-04-25T12:36:40;7.70;99.90
47520;DHT22;33252;48.122;11.538;2023-04-25T12:39:05;8.00;99.90
47520;DHT22;33252;48.122;11.538;2023-04-25T12:41:32;8.10;99.90
47520;DHT22;33252;48.122;11.538;2023-04-25T12:43:58;7.80;99.90
47520;DHT22;33252;48.122;11.538;2023-04-25T12:46:24;7.60;99.90
47520;DHT22;33252;48.122;11.538;2023-04-25T12:48:49;7.60;99.90
47520;DHT22;33252;48.122;11.538;2023-04-25T12:51:15;7.50;99.90
47520;DHT22;33252;48.122;11.538;2023-04-25T12:53:41;7.70;99.90
47520;DHT22;33252;48.122;11.538;2023-04-25T12:56:08;7.80;99.90
47520;DHT22;33252;48.122;11.538;2023-04-25T12:58:33;7.80;99.90
47520;DHT22;33252;48.122;11.538;2023-04-25T13:00:59;7.80;99.90
47520;DHT22;33252;48.122;11.538;2023-04-25T13:03:25;7.70;99.90
47520;DHT22;33252;48.122;11.538;2023-04-25T13:05:51;7.60;99.90
47520;DHT22;33252;48.122;11.538;2023-04-25T13:08:18;7.50;99.90
47520;DHT22;33252;48.122;11.538;2023-04-25T13:10:44;7.40;99.90
47520;DHT22;33252;48.122;11.538;2023-04-25T13:13:10;7.60;99.90
47520;DHT22;33252;48.122;11.538;2023-04-25T13:15:36;7.70;99.90
47520;DHT22;33252;48.122;11.538;2023-04-25T13:18:03;7.90;99.90
47520;DHT22;33252;48.122;11.538;2023-04-25T13:20:29;7.90;99.90
47520;DHT22;33252;48.122;11.538;2023-04-25T13:22:55;7.80;99.90
47520;DHT22;33252;48.122;11.538;2023-04-25T13:25:21;7.80;99.90
47520;DHT22;33252;48.122;11.538;2023-04-25T13:27:47;7.70;99.90
47520;DHT22;33252;48.122;11.538;2023-04-25T13:30:13;7.70;99.90
47520;DHT22;33252;48.122;11.538;2023-04-25T13:32:39;8.10;99.90
47520;DHT22;33252;48.122;11.538;2023-04-25T13:35:08;8.00;99.90
47520;DHT22;33252;48.122;11.538;2023-04-25T13:37:34;7.80;99.90
47520;DHT22;33252;48.122;11.538;2023-04-25T13:40:04;7.70;99.90
47520;DHT22;33252;48.122;11.538;2023-04-25T13:42:31;7.60;99.90
47520;DHT22;33252;48.122;11.538;2023-04-25T13:44:57;7.50;99.90
47520;DHT22;33252;48.122;11.538;2023-04-25T13:47:23;7.40;99.90
47520;DHT22;33252;48.122;11.538;2023-04-25T13:49:49;7.20;99.90
47520;DHT22;33252;48.122;11.538;2023-04-25T13:52:15;7.10;99.90
47520;DHT22;33252;48.122;11.538;2023-04-25T13:54:41;7.20;99.90
47520;DHT22;33252;48.122;11.538;2023-04-25T13:57:07;7.10;99.90
47520;DHT22;33252;48.122;11.538;2023-04-25T13:59:32;7.40;99.90
47520;DHT22;33252;48.122;11.538;2023-04-25T14:01:58;7.20;99.90
47520;DHT22;33252;48.122;11.538;2023-04-25T14:04:24;7.20;99.90
47520;DHT22;33252;48.122;11.538;2023-04-25T14:06:50;7.30;99.90
47520;DHT22;33252;48.122;11.538;2023-04-25T14:09:17;7.30;99.90
47520;DHT22;33252;48.122;11.538;2023-04-25T14:11:42;7.10;99.90
47520;DHT22;33252;48.122;11.538;2023-04-25T14:14:08;7.10;99.90
47520;DHT22;33252;48.122;11.538;2023-04-25T14:16:34;7.10;99.90
47520;DHT22;33252;48.122;11.538;2023-04-25T14:19:00;7.20;99.90
47520;DHT22;33252;48.122;11.538;2023-04-25T14:21:27;7.20;99.90
47520;DHT22;33252;48.122;11.538;2023-04-25T14:23:53;7.20;99.90
47520;DHT22;33252;48.122;11.538;2023-04-25T14:26:19;7.20;99.90
47520;DHT22;33252;48.122;11.538;2023-04-25T14:28:45;7.60;99.90
47520;DHT22;33252;48.122;11.538;2023-04-25T14:31:11;8.20;99.90
47520;DHT22;33252;48.122;11.538;2023-04-25T14:33:36;8.40;99.90
47520;DHT22;33252;48.122;11.538;2023-04-25T14:36:05;8.50;99.90
47520;DHT22;33252;48.122;11.538;2023-04-25T14:38:31;7.90;99.90
47520;DHT22;33252;48.122;11.538;2023-04-25T14:40:56;8.00;99.90
47520;DHT22;33252;48.122;11.538;2023-04-25T14:43:22;8.20;99.90
47520;DHT22;33252;48.122;11.538;2023-04-25T14:45:48;8.40;99.90
47520;DHT22;33252;48.122;11.538;2023-04-25T14:48:13;8.40;99.90
47520;DHT22;33252;48.122;11.538;2023-04-25T14:50:39;8.40;99.90
47520;DHT22;33252;48.122;11.538;2023-04-25T14:53:05;8.40;99.90
47520;DHT22;33252;48.122;11.538;2023-04-25T14:55:31;8.60;99.90
47520;DHT22;33252;48.122;11.538;2023-04-25T14:57:57;8.50;99.90
47520;DHT22;33252;48.122;11.538;2023-04-25T15:00:22;7.90;99.90
47520;DHT22;33252;48.122;11.538;2023-04-25T15:02:49;7.70;99.90
47520;DHT22;33252;48.122;11.538;2023-04-25T15:05:14;7.90;99.90
47520;DHT22;33252;48.122;11.538;2023-04-25T15:07:41;8.30;99.90
47520;DHT22;33252;48.122;11.538;2023-04-25T15:10:08;8.20;99.90
47520;DHT22;33252;48.122;11.538;2023-04-25T15:12:39;8.10;99.90
47520;DHT22;33252;48.122;11.538;2023-04-25T15:15:06;7.80;99.90
47520;DHT22;33252;48.122;11.538;2023-04-25T15:17:43;7.90;99.90
47520;DHT22;33252;48.122;11.538;2023-04-25T15:20:10;8.20;99.90
47520;DHT22;33252;48.122;11.538;2023-04-25T15:22:40;8.30;99.90
47520;DHT22;33252;48.122;11.538;2023-04-25T15:25:06;7.80;99.90
47520;DHT22;33252;48.122;11.538;2023-04-25T15:27:36;8.10;99.90
47520;DHT22;33252;48.122;11.538;2023-04-25T15:30:11;8.40;99.90
47520;DHT22;33252;48.122;11.538;2023-04-25T15:32:39;8.60;99.90
47520;DHT22;33252;48.122;11.538;2023-04-25T15:35:05;8.60;99.90
47520;DHT22;33252;48.122;11.538;2023-04-25T15:37:32;8.90;99.90